Time;durP1;ratioP1;P1;durP2;ratioP2;P2;SDS_P1;SDS_P2;PMS_P1;PMS_P2;Temp;Humidity;BMP_temperature;BMP_pressure;BME280_temperature;BME280_humidity;BME280_pressure;Samples;Min_cycle;Max_cycle;Signal;HPM_P1;HPM_P2
2022/08/20 00:01:47;;;;;;;3.60;2.50;;;18.70;99.90;;;;;;5053923;28;20291;-40
2022/08/20 00:04:13;;;;;;;3.47;2.50;;;18.70;99.90;;;;;;5055909;28;20202;-40
2022/08/20 00:06:39;;;;;;;5.97;2.70;;;18.60;99.90;;;;;;5055808;28;20200;-40
2022/08/20 00:09:05;;;;;;;4.10;2.70;;;18.60;99.90;;;;;;5055474;28;20168;-41
2022/08/20 00:11:32;;;;;;;4.00;2.67;;;18.60;99.90;;;;;;5055366;28;20204;-41
2022/08/20 00:14:01;;;;;;;4.17;2.50;;;18.60;99.90;;;;;;5055972;28;20191;-40
2022/08/20 00:16:31;;;;;;;2.87;2.23;;;18.60;99.90;;;;;;5055679;28;20184;-40
2022/08/20 00:18:57;;;;;;;2.70;2.37;;;18.70;99.90;;;;;;5056136;28;20263;-40
2022/08/20 00:21:24;;;;;;;4.80;2.60;;;18.70;99.90;;;;;;5055863;28;20228;-40
2022/08/20 00:23:51;;;;;;;2.30;2.10;;;18.70;99.90;;;;;;5055878;28;20188;-41
2022/08/20 00:26:18;;;;;;;5.13;2.97;;;18.70;99.90;;;;;;5055294;28;20181;-40
2022/08/20 00:28:45;;;;;;;4.20;2.73;;;18.70;99.90;;;;;;5055873;28;20260;-40
2022/08/20 00:31:13;;;;;;;3.00;2.70;;;18.70;99.90;;;;;;5055314;28;20315;-40
2022/08/20 00:33:39;;;;;;;3.57;2.87;;;18.80;99.90;;;;;;5055732;28;20183;-40
2022/08/20 00:36:08;;;;;;;6.30;2.90;;;18.80;99.90;;;;;;5055535;28;20540;-46
2022/08/20 00:38:35;;;;;;;2.83;2.50;;;18.80;99.90;;;;;;5055133;28;20169;-39
2022/08/20 00:41:01;;;;;;;3.07;2.70;;;18.80;99.90;;;;;;5054751;28;20200;-40
2022/08/20 00:44:08;;;;;;;6.37;3.17;;;18.80;99.90;;;;;;5054559;28;20624;-39
2022/08/20 00:46:34;;;;;;;4.57;2.97;;;18.80;99.90;;;;;;4954270;29;20208;-36
2022/08/20 00:49:02;;;;;;;5.60;3.00;;;18.80;99.90;;;;;;5039018;28;20200;-38
2022/08/20 00:51:33;;;;;;;4.60;2.40;;;18.80;99.90;;;;;;5054473;28;20204;-39
2022/08/20 00:54:14;;;;;;;5.07;2.47;;;18.70;99.90;;;;;;5054641;28;20176;-38
2022/08/20 00:56:42;;;;;;;4.17;2.70;;;18.80;99.90;;;;;;5054578;28;20513;-38
2022/08/20 00:59:13;;;;;;;4.53;2.70;;;18.80;99.90;;;;;;5054072;28;20294;-40
2022/08/20 01:01:41;;;;;;;6.43;3.30;;;18.80;99.90;;;;;;5054306;28;20287;-38
2022/08/20 01:04:06;;;;;;;4.53;3.43;;;18.70;99.90;;;;;;5054126;28;20656;-39
2022/08/20 01:06:32;;;;;;;4.03;3.53;;;18.80;99.90;;;;;;5054100;28;20200;-38
2022/08/20 01:09:00;;;;;;;4.47;3.80;;;18.80;99.90;;;;;;5054220;28;20226;-38
2022/08/20 01:11:32;;;;;;;6.10;3.60;;;18.80;99.90;;;;;;5053997;28;20192;-39
2022/08/20 01:13:59;;;;;;;6.43;4.43;;;18.80;99.90;;;;;;5054203;28;20172;-38
2022/08/20 01:16:30;;;;;;;3.83;3.43;;;18.80;99.90;;;;;;5053853;28;20188;-38
2022/08/20 01:18:59;;;;;;;4.13;3.43;;;18.80;99.90;;;;;;5054134;28;20177;-37
2022/08/20 01:21:31;;;;;;;7.03;4.47;;;18.80;99.90;;;;;;5053941;28;20203;-38
2022/08/20 01:24:05;;;;;;;5.20;3.93;;;18.80;99.90;;;;;;5054005;28;20528;-39
2022/08/20 01:26:37;;;;;;;6.80;3.70;;;18.80;99.90;;;;;;5053910;28;20187;-38
2022/08/20 01:29:07;;;;;;;6.40;4.07;;;18.90;99.90;;;;;;5053921;28;20195;-37
2022/08/20 01:31:37;;;;;;;5.27;4.37;;;18.90;99.90;;;;;;5053906;28;20192;-38
2022/08/20 01:34:07;;;;;;;5.87;3.93;;;18.90;99.90;;;;;;5035741;28;20275;-38
2022/08/20 01:36:35;;;;;;;5.90;3.80;;;18.80;99.90;;;;;;5053726;28;20180;-37
2022/08/20 01:39:03;;;;;;;8.20;4.97;;;18.80;99.90;;;;;;5053350;28;20184;-39
2022/08/20 01:41:44;;;;;;;5.37;4.00;;;18.80;99.90;;;;;;5053343;28;20204;-38
2022/08/20 01:44:11;;;;;;;4.00;3.57;;;18.80;99.90;;;;;;5053393;28;20627;-39
2022/08/20 01:46:40;;;;;;;4.17;3.77;;;18.80;99.90;;;;;;5035507;28;20200;-37
2022/08/20 01:49:14;;;;;;;4.40;3.63;;;18.90;99.90;;;;;;5035817;28;20237;-40
2022/08/20 01:51:40;;;;;;;3.97;3.57;;;18.80;99.90;;;;;;5053470;28;20188;-39
2022/08/20 01:54:06;;;;;;;8.17;4.03;;;18.80;99.90;;;;;;5053263;28;20633;-36
2022/08/20 01:56:33;;;;;;;6.87;3.40;;;18.80;99.90;;;;;;5053565;28;20176;-37
2022/08/20 01:59:00;;;;;;;7.40;4.03;;;18.80;99.90;;;;;;5053091;28;20559;-38
2022/08/20 02:01:34;;;;;;;4.53;3.63;;;18.80;99.90;;;;;;5053273;28;20204;-39
2022/08/20 02:04:02;;;;;;;4.20;3.37;;;18.80;99.90;;;;;;5053460;28;20167;-39
2022/08/20 02:06:31;;;;;;;4.87;3.47;;;18.80;99.90;;;;;;5053367;28;20653;-40
2022/08/20 02:08:59;;;;;;;5.20;3.37;;;18.80;99.90;;;;;;5053001;28;20180;-39
2022/08/20 02:11:26;;;;;;;4.53;3.37;;;18.80;99.90;;;;;;5053071;28;20202;-39
2022/08/20 02:13:52;;;;;;;4.23;3.00;;;18.70;99.90;;;;;;5053487;28;20173;-38
2022/08/20 02:16:23;;;;;;;3.97;3.33;;;18.70;99.90;;;;;;5053036;28;20207;-38
2022/08/20 02:18:54;;;;;;;3.53;3.23;;;18.70;99.90;;;;;;5052963;28;20176;-39
2022/08/20 02:21:22;;;;;;;4.87;3.47;;;18.70;99.90;;;;;;5053323;28;20204;-40
2022/08/20 02:23:48;;;;;;;3.70;3.17;;;18.80;99.90;;;;;;5053250;28;20169;-39
2022/08/20 02:26:17;;;;;;;4.53;3.80;;;18.80;99.90;;;;;;5052952;28;20183;-39
2022/08/20 02:28:48;;;;;;;6.27;3.27;;;18.80;99.90;;;;;;5053279;28;20255;-38
2022/08/20 02:31:15;;;;;;;4.90;4.03;;;18.80;99.90;;;;;;5052868;28;20206;-38
2022/08/20 02:33:40;;;;;;;5.73;3.80;;;18.80;99.90;;;;;;5053211;28;20229;-38
2022/08/20 02:36:06;;;;;;;4.63;3.93;;;18.80;99.90;;;;;;5052851;28;20184;-40
2022/08/20 02:38:33;;;;;;;6.17;4.63;;;18.80;99.90;;;;;;5053090;28;20183;-39
2022/08/20 02:41:00;;;;;;;6.17;4.70;;;18.80;99.90;;;;;;5052784;28;20200;-37
2022/08/20 02:43:25;;;;;;;4.47;4.03;;;18.80;99.90;;;;;;5053048;28;20184;-39
2022/08/20 02:45:51;;;;;;;5.60;4.63;;;18.80;99.90;;;;;;5053053;28;20185;-40
2022/08/20 02:48:19;;;;;;;6.73;4.87;;;18.80;99.90;;;;;;5053236;28;20205;-39
2022/08/20 02:50:47;;;;;;;5.27;4.70;;;18.80;99.90;;;;;;5054756;28;20327;-40
2022/08/20 02:53:14;;;;;;;7.47;5.50;;;18.80;99.90;;;;;;5056852;28;20217;-40
2022/08/20 02:55:40;;;;;;;4.60;4.17;;;18.80;99.90;;;;;;5056560;28;20172;-40
2022/08/20 02:58:06;;;;;;;5.27;4.77;;;18.90;99.90;;;;;;5056419;28;20210;-39
2022/08/20 03:00:32;;;;;;;5.03;4.53;;;18.90;99.90;;;;;;5056719;28;20192;-38
2022/08/20 03:02:59;;;;;;;5.77;5.20;;;18.80;99.90;;;;;;5056947;28;20636;-39
2022/08/20 03:05:24;;;;;;;7.00;5.27;;;18.90;99.90;;;;;;5056690;28;20172;-40
2022/08/20 03:07:58;;;;;;;5.87;5.37;;;18.90;99.90;;;;;;5056354;28;20199;-38
2022/08/20 03:10:26;;;;;;;6.90;5.27;;;18.90;99.90;;;;;;5056491;28;20160;-39
2022/08/20 03:12:52;;;;;;;6.03;5.43;;;18.90;99.90;;;;;;5056694;28;20190;-39
2022/08/20 03:15:19;;;;;;;6.03;5.30;;;18.90;99.90;;;;;;5056677;28;20190;-39
2022/08/20 03:17:45;;;;;;;6.37;5.47;;;18.90;99.90;;;;;;5038872;28;20195;-39
2022/08/20 03:20:12;;;;;;;6.57;5.97;;;18.90;99.90;;;;;;5056757;28;20184;-40
2022/08/20 03:22:37;;;;;;;8.13;6.67;;;18.90;99.90;;;;;;5056723;28;20259;-38
2022/08/20 03:25:04;;;;;;;10.23;7.37;;;18.90;99.90;;;;;;5056361;28;20253;-39
2022/08/20 03:27:30;;;;;;;7.33;6.57;;;18.90;99.90;;;;;;5057322;28;20563;-46
2022/08/20 03:29:55;;;;;;;7.87;6.83;;;18.90;99.90;;;;;;5056543;28;20191;-45
2022/08/20 03:32:21;;;;;;;9.00;7.80;;;18.90;99.90;;;;;;5055833;28;20207;-46
2022/08/20 03:34:47;;;;;;;10.53;8.80;;;18.90;99.90;;;;;;5056149;28;20604;-47
2022/08/20 03:37:12;;;;;;;12.27;8.77;;;18.90;99.90;;;;;;5055844;28;20191;-47
2022/08/20 03:39:38;;;;;;;10.37;8.47;;;18.90;99.90;;;;;;5056061;28;20187;-45
2022/08/20 03:42:04;;;;;;;13.90;8.77;;;18.90;99.90;;;;;;5055948;28;20257;-46
2022/08/20 03:44:30;;;;;;;13.37;10.47;;;18.90;99.90;;;;;;5055666;28;20667;-45
2022/08/20 03:46:56;;;;;;;10.17;8.93;;;18.90;99.90;;;;;;5055522;28;20220;-45
2022/08/20 03:49:23;;;;;;;11.57;9.33;;;18.90;99.90;;;;;;5055594;28;20256;-44
2022/08/20 03:51:49;;;;;;;11.27;9.70;;;18.90;99.90;;;;;;5055482;28;20196;-45
2022/08/20 03:54:14;;;;;;;11.47;9.57;;;18.90;99.90;;;;;;5055757;28;20222;-45
2022/08/20 03:56:40;;;;;;;11.03;9.07;;;18.90;99.90;;;;;;5055685;28;20192;-44
2022/08/20 03:59:05;;;;;;;13.50;9.23;;;18.90;99.90;;;;;;5054491;28;20258;-46
2022/08/20 04:01:31;;;;;;;14.37;9.80;;;18.90;99.90;;;;;;5054156;28;20207;-45
2022/08/20 04:03:57;;;;;;;12.20;10.00;;;18.80;99.90;;;;;;5054203;28;20279;-45
2022/08/20 04:06:23;;;;;;;12.50;10.87;;;18.80;99.90;;;;;;5054303;28;20191;-45
2022/08/20 04:08:49;;;;;;;12.03;10.53;;;18.90;99.90;;;;;;5054731;28;20180;-46
2022/08/20 04:11:14;;;;;;;12.70;10.70;;;18.80;99.90;;;;;;5054187;28;20207;-44
2022/08/20 04:13:40;;;;;;;17.87;11.07;;;18.80;99.90;;;;;;5054331;28;20172;-44
2022/08/20 04:16:08;;;;;;;13.37;10.70;;;18.80;99.90;;;;;;5054033;28;20176;-45
2022/08/20 04:18:35;;;;;;;13.87;11.30;;;18.80;99.90;;;;;;5053977;28;20262;-45
2022/08/20 04:21:02;;;;;;;15.00;12.00;;;18.80;99.90;;;;;;5053862;28;20196;-44
2022/08/20 04:23:30;;;;;;;13.80;11.13;;;18.70;99.90;;;;;;5053863;28;20709;-44
2022/08/20 04:25:56;;;;;;;14.67;12.30;;;18.70;99.90;;;;;;5054086;28;20184;-46
2022/08/20 04:28:25;;;;;;;14.73;12.13;;;18.70;99.90;;;;;;5053979;28;20218;-42
2022/08/20 04:30:52;;;;;;;15.33;11.97;;;18.70;99.90;;;;;;5053712;28;20242;-45
2022/08/20 04:33:23;;;;;;;15.00;11.90;;;18.70;99.90;;;;;;5054003;28;20263;-47
2022/08/20 04:35:49;;;;;;;14.00;11.60;;;18.70;99.90;;;;;;5053696;28;20255;-45
2022/08/20 04:38:16;;;;;;;14.17;12.67;;;18.60;99.90;;;;;;5053659;28;20268;-46
2022/08/20 04:40:59;;;;;;;16.80;12.60;;;18.60;99.90;;;;;;5053569;28;20200;-44
2022/08/20 04:43:32;;;;;;;13.53;11.17;;;18.60;99.90;;;;;;5053925;28;20176;-44
2022/08/20 04:46:00;;;;;;;13.83;11.70;;;18.50;99.90;;;;;;5053712;28;20644;-44
2022/08/20 04:48:27;;;;;;;14.77;11.57;;;18.50;99.90;;;;;;5053729;28;20214;-46
2022/08/20 04:50:54;;;;;;;13.77;12.03;;;18.50;99.90;;;;;;5053669;28;20200;-44
2022/08/20 04:53:22;;;;;;;15.30;11.97;;;18.50;99.90;;;;;;5053687;28;20542;-45
2022/08/20 04:55:49;;;;;;;17.03;11.77;;;18.50;99.90;;;;;;5053411;28;20180;-45
2022/08/20 04:58:24;;;;;;;15.83;12.67;;;18.50;99.90;;;;;;5015868;28;1082793;-44
2022/08/20 05:00:52;;;;;;;13.87;11.73;;;18.40;99.90;;;;;;5054121;28;20457;-45
2022/08/20 05:03:18;;;;;;;17.50;13.03;;;18.50;99.90;;;;;;5054393;28;20183;-44
2022/08/20 05:05:45;;;;;;;16.60;12.63;;;18.50;99.90;;;;;;5054075;28;20172;-45
2022/08/20 05:08:12;;;;;;;17.07;12.47;;;18.50;99.90;;;;;;5053916;28;20208;-45
2022/08/20 05:10:39;;;;;;;16.63;13.03;;;18.40;99.90;;;;;;5053960;28;20567;-44
2022/08/20 05:13:05;;;;;;;16.50;13.17;;;18.40;99.90;;;;;;5053743;28;20180;-44
2022/08/20 05:15:31;;;;;;;17.53;12.97;;;18.40;99.90;;;;;;5054369;28;20176;-44
2022/08/20 05:17:59;;;;;;;18.87;14.40;;;18.40;99.90;;;;;;5053868;28;20546;-45
2022/08/20 05:20:30;;;;;;;21.20;13.33;;;18.30;99.90;;;;;;5054033;28;20187;-43
2022/08/20 05:22:56;;;;;;;15.40;12.50;;;18.30;99.90;;;;;;5053721;28;20671;-46
2022/08/20 05:25:22;;;;;;;19.17;12.73;;;18.30;99.90;;;;;;5053982;28;20263;-45
2022/08/20 05:27:48;;;;;;;17.50;11.87;;;18.30;99.90;;;;;;5054308;28;20561;-45
2022/08/20 05:30:14;;;;;;;15.97;11.87;;;18.30;99.90;;;;;;5053644;28;20177;-44
2022/08/20 05:32:39;;;;;;;16.83;12.50;;;18.30;99.90;;;;;;5053934;28;20189;-45
2022/08/20 05:35:08;;;;;;;15.97;12.17;;;18.20;99.90;;;;;;5053832;28;20177;-45
2022/08/20 05:37:39;;;;;;;19.47;12.23;;;18.20;99.90;;;;;;5053911;28;20264;-46
2022/08/20 05:40:13;;;;;;;15.90;11.57;;;18.20;99.90;;;;;;5053836;28;20184;-45
2022/08/20 05:42:40;;;;;;;13.53;10.67;;;18.20;99.90;;;;;;5053553;28;20176;-44
2022/08/20 05:45:06;;;;;;;11.80;9.07;;;18.20;99.90;;;;;;5053490;28;20711;-44
2022/08/20 05:47:32;;;;;;;10.97;8.70;;;18.20;99.90;;;;;;5053909;28;20199;-44
2022/08/20 05:49:58;;;;;;;12.67;8.67;;;18.20;99.90;;;;;;5053927;28;20179;-44
2022/08/20 05:52:23;;;;;;;15.57;8.80;;;18.10;99.90;;;;;;5053435;28;20185;-46
2022/08/20 05:54:49;;;;;;;9.80;8.20;;;18.10;99.90;;;;;;5054018;28;20179;-45
2022/08/20 05:57:18;;;;;;;12.97;8.50;;;18.10;99.90;;;;;;5053246;28;20262;-45
2022/08/20 05:59:44;;;;;;;11.57;8.60;;;18.10;99.90;;;;;;5053101;28;20249;-43
2022/08/20 06:04:55;;;;;;;15.73;8.97;;;18.10;99.90;;;;;;5053640;28;20255;-43
2022/08/20 06:07:21;;;;;;;9.90;8.47;;;18.10;99.90;;;;;;5053310;28;20291;-44
2022/08/20 06:09:47;;;;;;;13.87;8.77;;;18.10;99.90;;;;;;5053039;28;20185;-44
2022/08/20 06:12:13;;;;;;;11.80;8.63;;;18.10;99.90;;;;;;5053411;28;20203;-45
2022/08/20 06:14:39;;;;;;;12.33;8.33;;;18.00;99.90;;;;;;5053392;28;20577;-43
2022/08/20 06:17:11;;;;;;;17.00;8.47;;;18.00;99.90;;;;;;5053120;28;20192;-44
2022/08/20 06:19:37;;;;;;;14.03;8.00;;;18.00;99.90;;;;;;5053058;28;20176;-46
2022/08/20 06:22:05;;;;;;;13.47;8.10;;;18.00;99.90;;;;;;5052963;28;20218;-44
2022/08/20 06:24:31;;;;;;;16.00;9.20;;;18.00;99.90;;;;;;5053218;28;20233;-45
2022/08/20 06:26:58;;;;;;;14.17;8.67;;;18.00;99.90;;;;;;5057581;28;20299;-45
2022/08/20 06:29:24;;;;;;;15.57;8.37;;;18.00;99.90;;;;;;5057270;28;20184;-46
2022/08/20 06:31:50;;;;;;;12.80;8.60;;;18.00;99.90;;;;;;5057021;28;20238;-44
2022/08/20 06:34:17;;;;;;;13.63;9.00;;;18.10;99.90;;;;;;5057572;28;20199;-44
2022/08/20 06:36:45;;;;;;;12.90;8.93;;;18.00;99.90;;;;;;5057231;28;20184;-46
2022/08/20 06:39:14;;;;;;;15.10;8.70;;;18.10;99.90;;;;;;5057609;28;20199;-45
2022/08/20 06:41:40;;;;;;;15.43;9.40;;;18.00;99.90;;;;;;5057193;28;20200;-45
2022/08/20 06:44:06;;;;;;;17.30;9.30;;;18.10;99.90;;;;;;5057048;28;20184;-46
2022/08/20 06:46:36;;;;;;;18.33;10.17;;;18.00;99.90;;;;;;5057205;28;20179;-46
2022/08/20 06:49:04;;;;;;;18.37;9.93;;;18.00;99.90;;;;;;5056922;28;20168;-45
2022/08/20 06:51:29;;;;;;;26.73;11.87;;;18.00;99.90;;;;;;5056953;28;20203;-46
2022/08/20 06:53:56;;;;;;;21.50;10.47;;;18.00;99.90;;;;;;5057754;28;20243;-44
2022/08/20 06:56:22;;;;;;;23.63;10.70;;;18.00;99.90;;;;;;5056993;28;20185;-45
2022/08/20 06:58:48;;;;;;;18.00;10.33;;;18.00;99.90;;;;;;5056817;28;20192;-45
2022/08/20 07:01:14;;;;;;;15.57;10.50;;;18.00;99.90;;;;;;5057200;28;20743;-45
2022/08/20 07:03:41;;;;;;;19.73;10.47;;;17.90;99.90;;;;;;5056868;28;20256;-44
2022/08/20 07:06:07;;;;;;;14.50;9.17;;;17.90;99.90;;;;;;5057123;28;20176;-43
2022/08/20 07:08:33;;;;;;;18.90;10.23;;;17.90;99.90;;;;;;5056696;28;20204;-44
2022/08/20 07:10:58;;;;;;;16.63;9.60;;;17.90;99.90;;;;;;5056656;28;20226;-44
2022/08/20 07:13:24;;;;;;;17.20;9.60;;;17.90;99.90;;;;;;5056584;28;20169;-47
2022/08/20 07:15:50;;;;;;;26.07;10.03;;;17.90;99.90;;;;;;5056634;28;20172;-43
2022/08/20 07:18:16;;;;;;;16.10;9.90;;;17.90;99.90;;;;;;5056770;28;20184;-45
2022/08/20 07:20:42;;;;;;;16.27;9.17;;;17.90;99.90;;;;;;5056580;28;20687;-43
2022/08/20 07:23:10;;;;;;;17.10;9.70;;;17.90;99.90;;;;;;5056228;28;20177;-45
2022/08/20 07:25:38;;;;;;;17.33;8.83;;;17.90;99.90;;;;;;5056358;28;20192;-44
2022/08/20 07:28:07;;;;;;;12.77;8.23;;;17.90;99.90;;;;;;5056412;28;20200;-45
2022/08/20 07:33:34;;;;;;;14.67;7.63;;;17.90;99.90;;;;;;5057448;28;20172;-46
2022/08/20 07:36:02;;;;;;;16.17;8.27;;;17.90;99.90;;;;;;5055856;28;20161;-44
2022/08/20 07:38:29;;;;;;;20.03;9.53;;;18.00;99.90;;;;;;5056055;28;20318;-43
2022/08/20 07:41:21;;;;;;;20.20;9.87;;;18.00;99.90;;;;;;5056808;28;20208;-44
2022/08/20 07:43:47;;;;;;;13.00;8.50;;;18.00;99.90;;;;;;5051594;28;20188;-45
2022/08/20 07:46:18;;;;;;;21.83;9.63;;;18.10;99.90;;;;;;5056160;28;20230;-46
2022/08/20 07:48:45;;;;;;;17.33;8.80;;;18.10;99.90;;;;;;5056009;28;20254;-43
2022/08/20 07:51:15;;;;;;;17.07;9.30;;;18.20;99.90;;;;;;5055900;28;20199;-44
2022/08/20 07:53:41;;;;;;;22.33;10.60;;;18.20;99.90;;;;;;5056191;28;20624;-45
2022/08/20 07:56:11;;;;;;;24.67;10.70;;;18.30;99.90;;;;;;5055924;28;20208;-44
2022/08/20 07:58:48;;;;;;;20.93;11.50;;;18.30;99.90;;;;;;5055502;28;20196;-45
2022/08/20 08:01:19;;;;;;;26.73;11.93;;;18.40;99.90;;;;;;5055920;28;20284;-44
2022/08/20 08:03:44;;;;;;;18.80;10.80;;;18.40;99.90;;;;;;5056013;28;20168;-44
2022/08/20 08:06:11;;;;;;;24.60;11.97;;;18.50;99.90;;;;;;5055760;28;20634;-46
2022/08/20 08:08:39;;;;;;;24.87;11.63;;;18.50;99.90;;;;;;5055767;28;20211;-44
2022/08/20 08:11:05;;;;;;;20.77;11.03;;;18.50;99.90;;;;;;5055497;28;20198;-44
2022/08/20 08:13:36;;;;;;;24.83;11.43;;;18.50;99.90;;;;;;5055316;28;20199;-46
2022/08/20 08:16:05;;;;;;;21.57;11.60;;;18.50;99.90;;;;;;5055526;28;20160;-46
2022/08/20 08:18:48;;;;;;;24.03;12.17;;;18.50;99.90;;;;;;5055247;28;20637;-45
2022/08/20 08:21:16;;;;;;;20.47;11.27;;;18.60;99.90;;;;;;5055805;28;20200;-44
2022/08/20 08:23:43;;;;;;;20.80;10.50;;;18.70;99.90;;;;;;5055653;28;20181;-45
2022/08/20 08:26:13;;;;;;;21.43;10.90;;;18.70;99.90;;;;;;5055296;28;20259;-45
2022/08/20 08:28:40;;;;;;;21.20;10.93;;;18.70;99.90;;;;;;5055093;28;20192;-45
2022/08/20 08:31:06;;;;;;;18.83;10.50;;;18.80;99.90;;;;;;5055621;28;20241;-45
2022/08/20 08:33:32;;;;;;;23.77;10.47;;;18.80;99.90;;;;;;5055339;28;20176;-45
2022/08/20 08:36:13;;;;;;;18.47;9.33;;;18.80;99.90;;;;;;5055153;28;20172;-44
2022/08/20 08:38:42;;;;;;;22.73;9.93;;;18.80;99.90;;;;;;5055389;28;20636;-44
2022/08/20 08:41:21;;;;;;;18.03;9.83;;;18.80;99.90;;;;;;5054925;28;20325;-44
2022/08/20 08:43:51;;;;;;;22.07;10.00;;;18.90;99.90;;;;;;5055363;28;20187;-44
2022/08/20 08:46:22;;;;;;;19.57;11.17;;;19.00;99.90;;;;;;5036996;28;20191;-44
2022/08/20 08:48:52;;;;;;;20.27;10.87;;;19.10;99.90;;;;;;5053800;28;20278;-43
2022/08/20 08:51:28;;;;;;;21.13;11.40;;;19.20;99.90;;;;;;5054462;28;20204;-43
2022/08/20 08:53:55;;;;;;;18.20;10.83;;;19.40;99.90;;;;;;5055167;28;20191;-45
2022/08/20 08:56:29;;;;;;;23.27;11.37;;;19.60;99.90;;;;;;5054391;28;20179;-45
2022/08/20 08:59:03;;;;;;;15.60;9.73;;;19.60;99.90;;;;;;5054842;28;20192;-46
2022/08/20 09:01:32;;;;;;;23.07;10.73;;;19.70;99.90;;;;;;5054802;28;20211;-45
2022/08/20 09:03:57;;;;;;;20.73;11.30;;;19.60;99.90;;;;;;5054218;28;20192;-46
2022/08/20 09:06:24;;;;;;;18.00;11.17;;;19.70;99.90;;;;;;5054839;28;20709;-45
2022/08/20 09:08:54;;;;;;;24.67;12.00;;;19.70;99.90;;;;;;5054791;28;20199;-44
2022/08/20 09:11:22;;;;;;;25.50;12.37;;;19.70;99.90;;;;;;5054163;28;20203;-45
2022/08/20 09:13:48;;;;;;;20.90;10.77;;;19.80;99.90;;;;;;5054319;28;20204;-45
2022/08/20 09:16:14;;;;;;;24.53;11.63;;;19.80;99.90;;;;;;5054250;28;20259;-46
2022/08/20 09:18:40;;;;;;;21.40;10.97;;;19.80;99.90;;;;;;5054384;28;20312;-44
2022/08/20 09:21:06;;;;;;;23.43;11.27;;;19.80;99.90;;;;;;5054031;28;20607;-45
2022/08/20 09:23:33;;;;;;;22.07;11.03;;;19.80;99.90;;;;;;5054042;28;20180;-45
2022/08/20 09:26:02;;;;;;;19.97;9.33;;;19.90;99.90;;;;;;5054619;28;20210;-45
2022/08/20 09:28:27;;;;;;;21.50;10.13;;;19.90;99.90;;;;;;5052730;28;20208;-46
2022/08/20 09:30:53;;;;;;;21.07;9.83;;;19.90;99.90;;;;;;5054015;28;20275;-45
2022/08/20 09:33:19;;;;;;;20.70;10.37;;;19.90;99.90;;;;;;5054395;28;20180;-45
2022/08/20 09:35:45;;;;;;;18.37;10.07;;;19.80;99.90;;;;;;5036550;28;20227;-44
2022/08/20 09:38:12;;;;;;;17.87;9.90;;;19.90;99.90;;;;;;5054151;28;20274;-43
2022/08/20 09:40:38;;;;;;;24.63;10.57;;;19.90;99.90;;;;;;5053919;28;20261;-44
2022/08/20 09:43:07;;;;;;;21.43;10.30;;;20.00;99.90;;;;;;5054383;28;20631;-45
2022/08/20 09:45:34;;;;;;;19.50;9.60;;;20.10;99.90;;;;;;5053507;28;20655;-45
2022/08/20 09:47:59;;;;;;;22.57;9.83;;;20.20;99.90;;;;;;5054030;28;20207;-46
2022/08/20 09:50:27;;;;;;;17.20;8.87;;;20.40;99.90;;;;;;5053715;28;20173;-47
2022/08/20 09:52:55;;;;;;;17.73;9.97;;;20.40;99.90;;;;;;5053382;28;20176;-46
2022/08/20 09:55:25;;;;;;;17.77;9.37;;;20.50;99.90;;;;;;5053865;28;20173;-44
2022/08/20 09:57:51;;;;;;;18.93;9.63;;;20.50;99.90;;;;;;5053679;28;20195;-44
2022/08/20 10:00:18;;;;;;;21.80;9.10;;;20.60;99.90;;;;;;5053322;28;20549;-45
2022/08/20 10:02:44;;;;;;;20.00;8.53;;;20.60;99.90;;;;;;5053792;28;20184;-45
2022/08/20 10:05:10;;;;;;;17.63;10.00;;;20.60;99.90;;;;;;5053425;28;20180;-44
2022/08/20 10:07:40;;;;;;;20.47;10.10;;;20.60;99.90;;;;;;5053632;28;20211;-45
2022/08/20 10:10:08;;;;;;;21.33;10.93;;;20.60;99.90;;;;;;5053491;28;20202;-44
2022/08/20 10:12:34;;;;;;;20.10;11.03;;;20.70;99.90;;;;;;5053302;28;20188;-44
2022/08/20 10:14:59;;;;;;;24.17;11.20;;;20.80;99.90;;;;;;5053411;28;20177;-45
2022/08/20 10:17:25;;;;;;;18.80;11.40;;;20.80;99.90;;;;;;5053248;28;20178;-47
2022/08/20 10:19:50;;;;;;;20.67;11.43;;;20.90;99.90;;;;;;5053108;28;20176;-45
2022/08/20 10:22:16;;;;;;;18.33;9.87;;;21.00;99.90;;;;;;5053393;28;20279;-44
2022/08/20 10:24:41;;;;;;;20.07;11.03;;;21.00;99.90;;;;;;5053258;28;20565;-45
2022/08/20 10:27:07;;;;;;;18.43;10.80;;;21.10;99.90;;;;;;5053021;28;20210;-45
2022/08/20 10:29:33;;;;;;;20.47;11.17;;;21.10;99.90;;;;;;5053174;28;20175;-46
2022/08/20 10:32:08;;;;;;;17.07;11.23;;;21.10;99.90;;;;;;5053532;28;20676;-45
2022/08/20 10:34:34;;;;;;;17.20;10.90;;;21.10;99.90;;;;;;5035436;28;20172;-45
2022/08/20 10:37:01;;;;;;;18.13;11.20;;;21.10;99.90;;;;;;5054267;28;20222;-44
2022/08/20 10:39:26;;;;;;;21.03;12.03;;;21.20;99.90;;;;;;5052990;28;20180;-45
2022/08/20 10:45:15;;;;;;;21.23;11.93;;;21.40;99.90;;;;;;5053244;28;20163;-45
2022/08/20 10:47:41;;;;;;;17.20;11.13;;;21.50;99.90;;;;;;5053284;28;20227;-45
2022/08/20 10:50:12;;;;;;;23.20;11.77;;;21.60;99.90;;;;;;5053390;28;20172;-45
2022/08/20 10:52:37;;;;;;;18.43;10.93;;;21.70;99.90;;;;;;5053290;28;20188;-45
2022/08/20 10:55:04;;;;;;;19.03;11.20;;;21.80;99.90;;;;;;5053014;28;20619;-44
2022/08/20 10:57:32;;;;;;;20.00;10.83;;;21.80;99.90;;;;;;5053204;28;20184;-44
2022/08/20 10:59:59;;;;;;;20.03;12.47;;;21.90;99.90;;;;;;5053200;28;20628;-45
2022/08/20 11:02:27;;;;;;;19.70;12.40;;;22.10;99.90;;;;;;5035335;28;20197;-46
2022/08/20 11:04:54;;;;;;;18.87;11.53;;;22.10;99.90;;;;;;5053133;28;20191;-46
2022/08/20 11:07:38;;;;;;;19.93;11.37;;;22.20;99.90;;;;;;5052719;28;20236;-44
2022/08/20 11:10:06;;;;;;;17.37;10.63;;;22.40;99.90;;;;;;5053360;28;20647;-47
2022/08/20 11:12:31;;;;;;;16.90;10.20;;;22.60;99.90;;;;;;5055922;28;20188;-46
2022/08/20 11:14:57;;;;;;;20.00;11.17;;;22.70;99.90;;;;;;5056665;28;20532;-45
2022/08/20 11:17:29;;;;;;;18.47;10.83;;;22.70;99.90;;;;;;5056554;28;20644;-45
2022/08/20 11:19:56;;;;;;;17.13;10.00;;;22.80;99.90;;;;;;5056931;28;20184;-46
2022/08/20 11:22:21;;;;;;;21.60;9.60;;;22.80;99.90;;;;;;5056408;28;20569;-45
2022/08/20 11:24:47;;;;;;;17.40;9.10;;;22.90;99.90;;;;;;5056261;28;20180;-45
2022/08/20 11:27:25;;;;;;;15.20;8.77;;;22.90;99.90;;;;;;5056291;28;20208;-45
2022/08/20 11:29:51;;;;;;;12.43;8.60;;;23.00;99.90;;;;;;5055114;28;20173;-46
2022/08/20 11:32:17;;;;;;;19.60;9.23;;;23.10;99.90;;;;;;5055973;28;20188;-46
2022/08/20 11:34:43;;;;;;;19.77;8.77;;;23.30;99.90;;;;;;5056222;28;20177;-47
2022/08/20 11:37:09;;;;;;;13.43;7.83;;;23.30;99.90;;;;;;5056557;28;20254;-47
2022/08/20 11:39:35;;;;;;;12.33;7.60;;;23.30;99.90;;;;;;5055928;28;20206;-45
2022/08/20 11:42:01;;;;;;;12.90;7.27;;;23.30;99.90;;;;;;5054714;28;20204;-47
2022/08/20 11:44:26;;;;;;;13.03;7.50;;;23.30;99.90;;;;;;5056041;28;20610;-46
2022/08/20 11:46:52;;;;;;;12.37;7.10;;;23.30;99.90;;;;;;5055733;28;20181;-46
2022/08/20 11:49:18;;;;;;;17.10;7.33;;;23.30;99.90;;;;;;5055695;28;20172;-46
2022/08/20 11:51:43;;;;;;;15.80;7.50;;;23.30;99.90;;;;;;5055814;28;20531;-47
2022/08/20 11:54:09;;;;;;;13.70;7.20;;;23.50;99.90;;;;;;5056311;28;20183;-45
2022/08/20 11:56:35;;;;;;;18.63;6.50;;;23.80;99.90;;;;;;5055861;28;20635;-45
2022/08/20 11:59:00;;;;;;;11.10;5.53;;;24.00;99.90;;;;;;5055707;28;20200;-46
2022/08/20 12:01:26;;;;;;;15.80;5.97;;;24.20;99.90;;;;;;5055455;28;20554;-47
2022/08/20 12:03:51;;;;;;;13.93;6.77;;;24.20;99.90;;;;;;5055374;28;20175;-45
2022/08/20 12:06:17;;;;;;;14.37;6.30;;;24.20;99.90;;;;;;5055864;28;20222;-45
2022/08/20 12:08:43;;;;;;;14.87;5.80;;;24.30;99.90;;;;;;5055161;28;20203;-47
2022/08/20 12:11:08;;;;;;;11.47;6.77;;;24.40;99.90;;;;;;5055389;28;20196;-46
2022/08/20 12:13:36;;;;;;;10.97;6.03;;;24.50;99.90;;;;;;5055500;28;20199;-47
2022/08/20 12:16:02;;;;;;;12.30;5.47;;;24.40;99.90;;;;;;5055177;28;20187;-46
2022/08/20 12:18:28;;;;;;;10.73;5.23;;;24.40;99.90;;;;;;5055027;28;20203;-46
2022/08/20 12:20:54;;;;;;;11.10;4.70;;;24.30;99.90;;;;;;5055253;28;20200;-47
2022/08/20 12:23:19;;;;;;;11.70;5.10;;;24.30;99.90;;;;;;5036043;28;20184;-47
2022/08/20 12:25:45;;;;;;;10.50;4.80;;;24.20;99.90;;;;;;5055777;28;20263;-47
2022/08/20 12:28:14;;;;;;;7.33;4.23;;;24.20;99.90;;;;;;5055054;28;20203;-47
2022/08/20 12:30:40;;;;;;;9.77;3.70;;;24.40;99.90;;;;;;5054882;28;20603;-47
2022/08/20 12:33:05;;;;;;;9.23;3.93;;;24.50;99.90;;;;;;5055222;28;20180;-48
2022/08/20 12:35:31;;;;;;;11.67;3.77;;;24.60;99.90;;;;;;5055417;28;20181;-46
2022/08/20 12:37:57;;;;;;;9.03;4.10;;;24.70;99.90;;;;;;5054832;28;20186;-47
2022/08/20 12:40:25;;;;;;;7.43;3.83;;;24.60;99.90;;;;;;5054773;28;20586;-47
2022/08/20 12:42:51;;;;;;;8.97;4.30;;;24.60;99.90;;;;;;5036677;28;20184;-46
2022/08/20 12:45:17;;;;;;;11.60;4.00;;;24.80;99.90;;;;;;5054620;28;20172;-46
2022/08/20 12:47:45;;;;;;;8.37;3.67;;;24.90;99.90;;;;;;5054524;28;20660;-47